sensor_id;sensor_type;location;lat;lon;timestamp;pressure;altitude;pressure_sealevel;temperature;humidity
77092;BME280;66032;48.252;11.638;2023-04-16T00:00:33;95780.47;;;6.53;86.20
77092;BME280;66032;48.252;11.638;2023-04-16T00:03:00;95774.22;;;6.54;86.12
77092;BME280;66032;48.252;11.638;2023-04-16T00:05:28;95776.72;;;6.56;86.17
77092;BME280;66032;48.252;11.638;2023-04-16T00:07:55;95780.31;;;6.55;86.08
77092;BME280;66032;48.252;11.638;2023-04-16T00:10:22;95780.59;;;6.42;86.60
77092;BME280;66032;48.252;11.638;2023-04-16T00:12:50;95786.13;;;6.39;87.05
77092;BME280;66032;48.252;11.638;2023-04-16T00:15:17;95790.44;;;6.40;86.89
77092;BME280;66032;48.252;11.638;2023-04-16T00:17:44;95781.28;;;6.34;86.92
77092;BME280;66032;48.252;11.638;2023-04-16T00:20:12;95779.19;;;6.28;87.25
77092;BME280;66032;48.252;11.638;2023-04-16T00:22:39;95785.97;;;6.31;87.03
77092;BME280;66032;48.252;11.638;2023-04-16T00:25:06;95785.28;;;6.29;86.78
77092;BME280;66032;48.252;11.638;2023-04-16T00:27:34;95788.06;;;6.27;86.89
77092;BME280;66032;48.252;11.638;2023-04-16T00:30:01;95780.00;;;6.29;86.86
77092;BME280;66032;48.252;11.638;2023-04-16T00:32:29;95780.84;;;6.29;86.83
77092;BME280;66032;48.252;11.638;2023-04-16T00:34:56;95772.81;;;6.31;86.78
77092;BME280;66032;48.252;11.638;2023-04-16T00:37:24;95775.56;;;6.29;86.45
77092;BME280;66032;48.252;11.638;2023-04-16T00:39:51;95777.38;;;6.29;86.48
77092;BME280;66032;48.252;11.638;2023-04-16T00:42:18;95776.03;;;6.34;86.04
77092;BME280;66032;48.252;11.638;2023-04-16T00:44:46;95771.44;;;6.36;85.89
77092;BME280;66032;48.252;11.638;2023-04-16T00:47:13;95772.13;;;6.38;85.67
77092;BME280;66032;48.252;11.638;2023-04-16T00:49:40;95774.78;;;6.38;85.43
77092;BME280;66032;48.252;11.638;2023-04-16T00:52:10;95775.47;;;6.40;85.21
77092;BME280;66032;48.252;11.638;2023-04-16T00:54:38;95780.59;;;6.42;85.04
77092;BME280;66032;48.252;11.638;2023-04-16T00:57:06;95781.16;;;6.45;84.80
77092;BME280;66032;48.252;11.638;2023-04-16T00:59:33;95781.97;;;6.46;84.87
77092;BME280;66032;48.252;11.638;2023-04-16T01:02:01;95781.00;;;6.47;84.82
77092;BME280;66032;48.252;11.638;2023-04-16T01:04:29;95786.56;;;6.34;85.18
77092;BME280;66032;48.252;11.638;2023-04-16T01:06:57;95783.47;;;6.29;85.34
77092;BME280;66032;48.252;11.638;2023-04-16T01:09:24;95783.59;;;6.28;85.42
77092;BME280;66032;48.252;11.638;2023-04-16T01:11:51;95785.00;;;6.32;85.33
77092;BME280;66032;48.252;11.638;2023-04-16T01:14:19;95785.00;;;6.32;85.18
77092;BME280;66032;48.252;11.638;2023-04-16T01:16:46;95782.25;;;6.33;85.14
77092;BME280;66032;48.252;11.638;2023-04-16T01:19:13;95782.66;;;6.38;84.74
77092;BME280;66032;48.252;11.638;2023-04-16T01:21:41;95786.72;;;6.42;84.42
77092;BME280;66032;48.252;11.638;2023-04-16T01:24:08;95786.41;;;6.45;84.44
77092;BME280;66032;48.252;11.638;2023-04-16T01:26:36;95786.97;;;6.39;84.73
77092;BME280;66032;48.252;11.638;2023-04-16T01:29:03;95791.41;;;6.39;84.75
77092;BME280;66032;48.252;11.638;2023-04-16T01:31:31;95791.69;;;6.36;84.68
77092;BME280;66032;48.252;11.638;2023-04-16T01:34:21;95790.56;;;6.38;84.47
77092;BME280;66032;48.252;11.638;2023-04-16T01:36:49;95788.91;;;6.37;84.77
77092;BME280;66032;48.252;11.638;2023-04-16T01:39:17;95792.94;;;6.41;84.57
77092;BME280;66032;48.252;11.638;2023-04-16T01:41:45;95791.25;;;6.40;84.54
77092;BME280;66032;48.252;11.638;2023-04-16T01:44:12;95795.81;;;6.38;84.58
77092;BME280;66032;48.252;11.638;2023-04-16T01:46:41;95797.78;;;6.46;84.42
77092;BME280;66032;48.252;11.638;2023-04-16T01:49:10;95793.22;;;6.48;84.44
77092;BME280;66032;48.252;11.638;2023-04-16T01:51:37;95801.41;;;6.55;84.18
77092;BME280;66032;48.252;11.638;2023-04-16T01:54:04;95804.31;;;6.61;83.99
77092;BME280;66032;48.252;11.638;2023-04-16T01:56:32;95799.88;;;6.62;84.01
77092;BME280;66032;48.252;11.638;2023-04-16T01:58:59;95799.47;;;6.66;83.74
77092;BME280;66032;48.252;11.638;2023-04-16T02:01:32;95806.97;;;6.71;83.75
77092;BME280;66032;48.252;11.638;2023-04-16T02:04:01;95803.78;;;6.67;83.79
77092;BME280;66032;48.252;11.638;2023-04-16T02:06:28;95807.38;;;6.66;83.67
77092;BME280;66032;48.252;11.638;2023-04-16T02:08:57;95802.66;;;6.60;84.00
77092;BME280;66032;48.252;11.638;2023-04-16T02:11:25;95800.88;;;6.61;84.04
77092;BME280;66032;48.252;11.638;2023-04-16T02:13:53;95798.38;;;6.59;84.21
77092;BME280;66032;48.252;11.638;2023-04-16T02:16:20;95801.97;;;6.58;84.04
77092;BME280;66032;48.252;11.638;2023-04-16T02:18:51;95804.31;;;6.52;84.33
77092;BME280;66032;48.252;11.638;2023-04-16T02:21:20;95800.31;;;6.57;84.17
77092;BME280;66032;48.252;11.638;2023-04-16T02:23:48;95796.69;;;6.48;84.37
77092;BME280;66032;48.252;11.638;2023-04-16T02:26:23;95793.78;;;6.42;84.85
77092;BME280;66032;48.252;11.638;2023-04-16T02:28:55;95799.88;;;6.42;84.81
77092;BME280;66032;48.252;11.638;2023-04-16T02:31:27;95799.31;;;6.48;84.65
77092;BME280;66032;48.252;11.638;2023-04-16T02:33:56;95810.25;;;6.54;84.45
77092;BME280;66032;48.252;11.638;2023-04-16T02:36:24;95803.03;;;6.46;84.47
77092;BME280;66032;48.252;11.638;2023-04-16T02:38:53;95804.00;;;6.45;84.63
77092;BME280;66032;48.252;11.638;2023-04-16T02:41:21;95807.78;;;6.42;84.66
77092;BME280;66032;48.252;11.638;2023-04-16T02:43:48;95815.53;;;6.44;84.63
77092;BME280;66032;48.252;11.638;2023-04-16T02:46:15;95815.25;;;6.47;84.45
77092;BME280;66032;48.252;11.638;2023-04-16T02:48:43;95820.50;;;6.47;84.43
77092;BME280;66032;48.252;11.638;2023-04-16T02:51:10;95826.44;;;6.39;84.41
77092;BME280;66032;48.252;11.638;2023-04-16T02:53:37;95822.72;;;6.42;84.64
77092;BME280;66032;48.252;11.638;2023-04-16T02:56:05;95828.38;;;6.37;84.52
77092;BME280;66032;48.252;11.638;2023-04-16T02:58:33;95823.28;;;6.36;84.61
77092;BME280;66032;48.252;11.638;2023-04-16T03:01:00;95824.50;;;6.32;84.62
77092;BME280;66032;48.252;11.638;2023-04-16T03:03:28;95820.91;;;6.33;84.54
77092;BME280;66032;48.252;11.638;2023-04-16T03:05:55;95825.59;;;6.29;84.66
77092;BME280;66032;48.252;11.638;2023-04-16T03:08:22;95822.44;;;6.35;84.63
77092;BME280;66032;48.252;11.638;2023-04-16T03:10:50;95815.94;;;6.39;84.46
77092;BME280;66032;48.252;11.638;2023-04-16T03:13:17;95818.97;;;6.44;84.18
77092;BME280;66032;48.252;11.638;2023-04-16T03:15:48;95822.03;;;6.50;83.99
77092;BME280;66032;48.252;11.638;2023-04-16T03:18:16;95823.72;;;6.51;83.98
77092;BME280;66032;48.252;11.638;2023-04-16T03:20:43;95826.34;;;6.51;84.06
77092;BME280;66032;48.252;11.638;2023-04-16T03:23:10;95824.25;;;6.54;83.94
77092;BME280;66032;48.252;11.638;2023-04-16T03:25:38;95823.16;;;6.57;83.87
77092;BME280;66032;48.252;11.638;2023-04-16T03:28:08;95826.22;;;6.62;83.67
77092;BME280;66032;48.252;11.638;2023-04-16T03:30:36;95830.50;;;6.63;83.63
77092;BME280;66032;48.252;11.638;2023-04-16T03:33:05;95830.94;;;6.58;83.74
77092;BME280;66032;48.252;11.638;2023-04-16T03:35:33;95827.22;;;6.61;83.70
77092;BME280;66032;48.252;11.638;2023-04-16T03:38:01;95827.34;;;6.59;83.75
77092;BME280;66032;48.252;11.638;2023-04-16T03:40:28;95836.91;;;6.60;83.67
77092;BME280;66032;48.252;11.638;2023-04-16T03:42:58;95834.94;;;6.62;83.65
77092;BME280;66032;48.252;11.638;2023-04-16T03:45:27;95843.00;;;6.61;83.97
77092;BME280;66032;48.252;11.638;2023-04-16T03:47:54;95845.47;;;6.62;83.83
77092;BME280;66032;48.252;11.638;2023-04-16T03:50:24;95844.22;;;6.57;83.96
77092;BME280;66032;48.252;11.638;2023-04-16T03:52:51;95840.22;;;6.53;84.26
77092;BME280;66032;48.252;11.638;2023-04-16T03:55:19;95847.13;;;6.54;84.45
77092;BME280;66032;48.252;11.638;2023-04-16T03:57:46;95842.16;;;6.51;84.63
77092;BME280;66032;48.252;11.638;2023-04-16T04:00:15;95852.53;;;6.42;84.88
77092;BME280;66032;48.252;11.638;2023-04-16T04:02:58;95845.13;;;6.36;85.30
77092;BME280;66032;48.252;11.638;2023-04-16T04:05:26;95854.41;;;6.31;85.43
77092;BME280;66032;48.252;11.638;2023-04-16T04:07:53;95849.94;;;6.22;86.16
77092;BME280;66032;48.252;11.638;2023-04-16T04:10:21;95859.38;;;6.24;86.12
77092;BME280;66032;48.252;11.638;2023-04-16T04:12:49;95854.50;;;6.20;86.24
77092;BME280;66032;48.252;11.638;2023-04-16T04:15:16;95866.44;;;6.24;86.22
77092;BME280;66032;48.252;11.638;2023-04-16T04:17:44;95861.31;;;6.22;86.59
77092;BME280;66032;48.252;11.638;2023-04-16T04:20:12;95867.28;;;6.24;86.45
77092;BME280;66032;48.252;11.638;2023-04-16T04:22:42;95864.06;;;6.21;86.67
77092;BME280;66032;48.252;11.638;2023-04-16T04:25:11;95869.50;;;6.19;86.70
77092;BME280;66032;48.252;11.638;2023-04-16T04:27:38;95868.38;;;6.22;86.62
77092;BME280;66032;48.252;11.638;2023-04-16T04:30:07;95870.75;;;6.25;86.75
77092;BME280;66032;48.252;11.638;2023-04-16T04:32:34;95862.72;;;6.26;86.46
77092;BME280;66032;48.252;11.638;2023-04-16T04:35:02;95871.59;;;6.25;86.62
77092;BME280;66032;48.252;11.638;2023-04-16T04:37:30;95863.41;;;6.28;86.18
77092;BME280;66032;48.252;11.638;2023-04-16T04:39:57;95869.66;;;6.27;86.43
77092;BME280;66032;48.252;11.638;2023-04-16T04:42:25;95865.75;;;6.22;86.51
77092;BME280;66032;48.252;11.638;2023-04-16T04:44:53;95876.97;;;6.24;86.55
77092;BME280;66032;48.252;11.638;2023-04-16T04:47:22;95878.22;;;6.29;86.51
77092;BME280;66032;48.252;11.638;2023-04-16T04:49:51;95879.34;;;6.27;86.41
77092;BME280;66032;48.252;11.638;2023-04-16T04:52:19;95882.00;;;6.27;86.54
77092;BME280;66032;48.252;11.638;2023-04-16T04:54:48;95878.19;;;6.20;86.46
77092;BME280;66032;48.252;11.638;2023-04-16T04:57:15;95883.63;;;6.28;86.39
77092;BME280;66032;48.252;11.638;2023-04-16T04:59:43;95884.22;;;6.31;86.38
77092;BME280;66032;48.252;11.638;2023-04-16T05:02:12;95892.81;;;6.33;86.27
77092;BME280;66032;48.252;11.638;2023-04-16T05:04:40;95888.88;;;6.28;86.30
77092;BME280;66032;48.252;11.638;2023-04-16T05:07:07;95892.53;;;6.36;86.39
77092;BME280;66032;48.252;11.638;2023-04-16T05:09:34;95889.91;;;6.36;85.94
77092;BME280;66032;48.252;11.638;2023-04-16T05:12:02;95884.50;;;6.38;86.14
77092;BME280;66032;48.252;11.638;2023-04-16T05:14:30;95892.00;;;6.42;86.11
77092;BME280;66032;48.252;11.638;2023-04-16T05:16:57;95902.25;;;6.45;85.76
77092;BME280;66032;48.252;11.638;2023-04-16T05:19:24;95899.22;;;6.40;85.82
77092;BME280;66032;48.252;11.638;2023-04-16T05:21:53;95906.13;;;6.41;86.04
77092;BME280;66032;48.252;11.638;2023-04-16T05:24:21;95904.75;;;6.47;85.91
77092;BME280;66032;48.252;11.638;2023-04-16T05:26:48;95907.44;;;6.57;85.84
77092;BME280;66032;48.252;11.638;2023-04-16T05:29:15;95911.31;;;6.62;85.50
77092;BME280;66032;48.252;11.638;2023-04-16T05:31:43;95910.91;;;6.57;85.23
77092;BME280;66032;48.252;11.638;2023-04-16T05:34:10;95914.38;;;6.58;85.33
77092;BME280;66032;48.252;11.638;2023-04-16T05:36:37;95909.13;;;6.67;85.68
77092;BME280;66032;48.252;11.638;2023-04-16T05:39:05;95914.81;;;6.72;84.90
77092;BME280;66032;48.252;11.638;2023-04-16T05:41:34;95916.75;;;6.70;84.95
77092;BME280;66032;48.252;11.638;2023-04-16T05:44:01;95921.91;;;6.81;84.67
77092;BME280;66032;48.252;11.638;2023-04-16T05:46:28;95924.44;;;6.93;84.58
77092;BME280;66032;48.252;11.638;2023-04-16T05:48:56;95919.44;;;6.90;84.10
77092;BME280;66032;48.252;11.638;2023-04-16T05:51:23;95922.34;;;6.86;84.46
77092;BME280;66032;48.252;11.638;2023-04-16T05:53:52;95920.38;;;6.79;84.78
77092;BME280;66032;48.252;11.638;2023-04-16T05:56:19;95916.91;;;6.78;84.71
77092;BME280;66032;48.252;11.638;2023-04-16T05:58:48;95920.81;;;6.84;84.91
77092;BME280;66032;48.252;11.638;2023-04-16T06:01:15;95924.28;;;6.84;84.92
77092;BME280;66032;48.252;11.638;2023-04-16T06:03:42;95922.34;;;6.96;84.50
77092;BME280;66032;48.252;11.638;2023-04-16T06:06:11;95934.72;;;7.05;84.41
77092;BME280;66032;48.252;11.638;2023-04-16T06:08:39;95931.81;;;7.08;83.95
77092;BME280;66032;48.252;11.638;2023-04-16T06:11:06;95932.38;;;7.21;83.73
77092;BME280;66032;48.252;11.638;2023-04-16T06:13:33;95934.88;;;7.13;83.89
77092;BME280;66032;48.252;11.638;2023-04-16T06:16:01;95942.50;;;7.16;83.71
77092;BME280;66032;48.252;11.638;2023-04-16T06:18:28;95936.41;;;7.26;83.24
77092;BME280;66032;48.252;11.638;2023-04-16T06:20:55;95936.97;;;7.39;83.34
77092;BME280;66032;48.252;11.638;2023-04-16T06:23:25;95936.28;;;7.46;83.49
77092;BME280;66032;48.252;11.638;2023-04-16T06:25:52;95940.72;;;7.65;82.32
77092;BME280;66032;48.252;11.638;2023-04-16T06:28:20;95932.78;;;7.84;81.44
77092;BME280;66032;48.252;11.638;2023-04-16T06:30:47;95947.09;;;7.91;81.22
77092;BME280;66032;48.252;11.638;2023-04-16T06:33:15;95941.81;;;7.91;80.92
77092;BME280;66032;48.252;11.638;2023-04-16T06:35:42;95948.06;;;7.81;81.35
77092;BME280;66032;48.252;11.638;2023-04-16T06:38:09;95955.59;;;7.76;81.31
77092;BME280;66032;48.252;11.638;2023-04-16T06:40:37;95950.69;;;7.90;81.68
77092;BME280;66032;48.252;11.638;2023-04-16T06:43:04;95954.41;;;8.07;81.39
77092;BME280;66032;48.252;11.638;2023-04-16T06:45:32;95949.69;;;8.11;80.44
77092;BME280;66032;48.252;11.638;2023-04-16T06:47:59;95961.53;;;7.87;81.32
77092;BME280;66032;48.252;11.638;2023-04-16T06:50:27;95963.75;;;7.92;81.18
77092;BME280;66032;48.252;11.638;2023-04-16T06:52:55;95960.41;;;7.90;81.38
77092;BME280;66032;48.252;11.638;2023-04-16T06:55:22;95961.94;;;7.92;80.95
77092;BME280;66032;48.252;11.638;2023-04-16T06:57:49;95969.88;;;8.02;80.58
77092;BME280;66032;48.252;11.638;2023-04-16T07:00:17;95968.06;;;8.03;80.81
77092;BME280;66032;48.252;11.638;2023-04-16T07:02:44;95964.00;;;8.08;80.09
77092;BME280;66032;48.252;11.638;2023-04-16T07:05:12;95963.88;;;7.90;80.64
77092;BME280;66032;48.252;11.638;2023-04-16T07:07:39;95977.53;;;7.86;81.12
77092;BME280;66032;48.252;11.638;2023-04-16T07:10:07;95973.34;;;7.93;80.93
77092;BME280;66032;48.252;11.638;2023-04-16T07:12:34;95976.38;;;8.08;80.50
77092;BME280;66032;48.252;11.638;2023-04-16T07:15:02;95968.41;;;8.27;80.20
77092;BME280;66032;48.252;11.638;2023-04-16T07:17:29;95964.63;;;8.49;79.26
77092;BME280;66032;48.252;11.638;2023-04-16T07:19:57;95966.22;;;8.69;78.97
77092;BME280;66032;48.252;11.638;2023-04-16T07:22:24;95970.03;;;8.84;78.13
77092;BME280;66032;48.252;11.638;2023-04-16T07:24:51;95973.03;;;8.99;77.21
77092;BME280;66032;48.252;11.638;2023-04-16T07:27:19;95970.38;;;8.99;77.13
77092;BME280;66032;48.252;11.638;2023-04-16T07:29:46;95966.25;;;9.14;76.24
77092;BME280;66032;48.252;11.638;2023-04-16T07:32:13;95964.41;;;9.42;75.76
77092;BME280;66032;48.252;11.638;2023-04-16T07:34:41;95963.38;;;9.52;75.71
77092;BME280;66032;48.252;11.638;2023-04-16T07:37:08;95963.75;;;9.58;74.79
77092;BME280;66032;48.252;11.638;2023-04-16T07:39:36;95967.59;;;9.63;74.71
77092;BME280;66032;48.252;11.638;2023-04-16T07:42:03;95972.44;;;9.85;74.14
77092;BME280;66032;48.252;11.638;2023-04-16T07:44:30;95968.13;;;9.84;73.69
77092;BME280;66032;48.252;11.638;2023-04-16T07:46:58;95975.72;;;10.05;73.02
77092;BME280;66032;48.252;11.638;2023-04-16T07:49:25;95976.28;;;10.09;72.38
77092;BME280;66032;48.252;11.638;2023-04-16T07:51:52;95973.81;;;10.33;72.15
77092;BME280;66032;48.252;11.638;2023-04-16T07:54:19;95973.03;;;10.67;71.06
77092;BME280;66032;48.252;11.638;2023-04-16T07:56:47;95976.38;;;10.43;70.89
77092;BME280;66032;48.252;11.638;2023-04-16T07:59:14;95972.84;;;10.34;70.89
77092;BME280;66032;48.252;11.638;2023-04-16T08:01:49;95979.19;;;10.41;70.97
77092;BME280;66032;48.252;11.638;2023-04-16T08:04:16;95981.69;;;10.43;69.89
77092;BME280;66032;48.252;11.638;2023-04-16T08:06:50;95981.09;;;10.57;69.73
77092;BME280;66032;48.252;11.638;2023-04-16T08:09:22;95982.25;;;10.54;69.74
77092;BME280;66032;48.252;11.638;2023-04-16T08:11:49;95987.44;;;10.64;69.98
77092;BME280;66032;48.252;11.638;2023-04-16T08:14:17;95986.69;;;10.80;69.02
77092;BME280;66032;48.252;11.638;2023-04-16T08:16:44;95990.47;;;11.03;68.62
77092;BME280;66032;48.252;11.638;2023-04-16T08:19:12;95994.59;;;11.06;67.61
77092;BME280;66032;48.252;11.638;2023-04-16T08:21:39;96001.97;;;11.20;67.92
77092;BME280;66032;48.252;11.638;2023-04-16T08:24:07;96005.44;;;11.70;67.38
77092;BME280;66032;48.252;11.638;2023-04-16T08:26:34;95999.63;;;11.67;66.93
77092;BME280;66032;48.252;11.638;2023-04-16T08:29:01;96004.00;;;12.00;66.02
77092;BME280;66032;48.252;11.638;2023-04-16T08:31:29;96003.53;;;12.29;65.81
77092;BME280;66032;48.252;11.638;2023-04-16T08:33:56;96005.66;;;12.58;64.64
77092;BME280;66032;48.252;11.638;2023-04-16T08:36:24;96007.25;;;12.91;62.92
77092;BME280;66032;48.252;11.638;2023-04-16T08:38:51;96006.34;;;13.62;61.63
77092;BME280;66032;48.252;11.638;2023-04-16T08:41:20;96009.34;;;13.59;60.83
77092;BME280;66032;48.252;11.638;2023-04-16T08:43:49;96000.47;;;13.67;59.93
77092;BME280;66032;48.252;11.638;2023-04-16T08:46:20;96000.97;;;13.93;59.06
77092;BME280;66032;48.252;11.638;2023-04-16T08:48:53;96007.97;;;14.63;59.10
77092;BME280;66032;48.252;11.638;2023-04-16T08:51:22;96009.00;;;14.76;57.76
77092;BME280;66032;48.252;11.638;2023-04-16T08:54:03;96009.13;;;14.98;56.78
77092;BME280;66032;48.252;11.638;2023-04-16T08:56:35;96012.50;;;14.92;56.54
77092;BME280;66032;48.252;11.638;2023-04-16T08:59:03;96004.72;;;14.53;56.36
77092;BME280;66032;48.252;11.638;2023-04-16T09:01:31;96014.63;;;14.44;57.23
77092;BME280;66032;48.252;11.638;2023-04-16T09:03:59;96018.03;;;14.07;57.57
77092;BME280;66032;48.252;11.638;2023-04-16T09:06:42;96020.91;;;14.51;56.69
77092;BME280;66032;48.252;11.638;2023-04-16T09:09:10;96016.00;;;14.92;57.10
77092;BME280;66032;48.252;11.638;2023-04-16T09:11:38;96025.19;;;14.75;57.03
77092;BME280;66032;48.252;11.638;2023-04-16T09:14:08;96031.75;;;14.50;57.37
77092;BME280;66032;48.252;11.638;2023-04-16T09:16:38;96033.28;;;14.81;56.74
77092;BME280;66032;48.252;11.638;2023-04-16T09:19:06;96028.41;;;14.85;56.70
77092;BME280;66032;48.252;11.638;2023-04-16T09:21:33;96036.19;;;15.24;55.15
77092;BME280;66032;48.252;11.638;2023-04-16T09:24:02;96032.28;;;14.82;56.67
77092;BME280;66032;48.252;11.638;2023-04-16T09:26:29;96033.75;;;14.85;56.70
77092;BME280;66032;48.252;11.638;2023-04-16T09:28:57;96026.84;;;14.91;55.64
77092;BME280;66032;48.252;11.638;2023-04-16T09:31:25;96035.97;;;15.40;54.93
77092;BME280;66032;48.252;11.638;2023-04-16T09:34:13;96034.72;;;15.22;55.91
77092;BME280;66032;48.252;11.638;2023-04-16T09:36:41;96032.03;;;15.07;55.76
77092;BME280;66032;48.252;11.638;2023-04-16T09:39:17;96023.22;;;15.21;55.31
77092;BME280;66032;48.252;11.638;2023-04-16T09:41:45;96029.25;;;14.86;55.54
77092;BME280;66032;48.252;11.638;2023-04-16T09:44:14;96035.31;;;14.79;56.24
77092;BME280;66032;48.252;11.638;2023-04-16T09:46:42;96032.19;;;14.91;55.81
77092;BME280;66032;48.252;11.638;2023-04-16T09:49:13;96034.78;;;14.99;55.45
77092;BME280;66032;48.252;11.638;2023-04-16T09:51:41;96039.00;;;14.93;55.39
77092;BME280;66032;48.252;11.638;2023-04-16T09:54:09;96040.53;;;14.73;55.68
77092;BME280;66032;48.252;11.638;2023-04-16T09:56:45;96032.19;;;13.85;56.68
77092;BME280;66032;48.252;11.638;2023-04-16T09:59:20;96042.41;;;14.72;55.95
77092;BME280;66032;48.252;11.638;2023-04-16T10:01:48;96042.50;;;14.56;55.21
77092;BME280;66032;48.252;11.638;2023-04-16T10:04:16;96036.78;;;14.45;55.58
77092;BME280;66032;48.252;11.638;2023-04-16T10:06:43;96041.69;;;14.10;56.51
77092;BME280;66032;48.252;11.638;2023-04-16T10:09:12;96044.13;;;13.97;58.22
77092;BME280;66032;48.252;11.638;2023-04-16T10:11:40;96042.56;;;13.80;58.24
77092;BME280;66032;48.252;11.638;2023-04-16T10:14:07;96046.13;;;13.64;57.42
77092;BME280;66032;48.252;11.638;2023-04-16T10:16:35;96046.78;;;13.27;58.15
77092;BME280;66032;48.252;11.638;2023-04-16T10:19:03;96043.97;;;13.59;58.80
77092;BME280;66032;48.252;11.638;2023-04-16T10:21:31;96046.13;;;13.17;59.08
77092;BME280;66032;48.252;11.638;2023-04-16T10:24:00;96053.78;;;13.12;58.70
77092;BME280;66032;48.252;11.638;2023-04-16T10:26:29;96057.75;;;13.24;58.99
77092;BME280;66032;48.252;11.638;2023-04-16T10:28:57;96053.41;;;13.31;58.36
77092;BME280;66032;48.252;11.638;2023-04-16T10:31:26;96054.38;;;13.46;59.52
77092;BME280;66032;48.252;11.638;2023-04-16T10:33:55;96047.28;;;13.31;58.08
77092;BME280;66032;48.252;11.638;2023-04-16T10:36:23;96052.06;;;13.35;57.26
77092;BME280;66032;48.252;11.638;2023-04-16T10:38:56;96052.72;;;13.76;56.91
77092;BME280;66032;48.252;11.638;2023-04-16T10:41:25;96046.56;;;13.98;57.00
77092;BME280;66032;48.252;11.638;2023-04-16T10:44:03;96047.84;;;14.11;56.34
77092;BME280;66032;48.252;11.638;2023-04-16T10:46:43;96054.16;;;14.40;54.59
77092;BME280;66032;48.252;11.638;2023-04-16T10:49:23;96047.00;;;14.78;55.36
77092;BME280;66032;48.252;11.638;2023-04-16T10:51:58;96049.19;;;14.75;54.20
77092;BME280;66032;48.252;11.638;2023-04-16T10:54:30;96043.34;;;14.57;54.35
77092;BME280;66032;48.252;11.638;2023-04-16T10:56:59;96049.69;;;14.33;55.88
77092;BME280;66032;48.252;11.638;2023-04-16T10:59:32;96055.56;;;14.51;55.59
77092;BME280;66032;48.252;11.638;2023-04-16T11:02:06;96056.50;;;14.13;56.07
77092;BME280;66032;48.252;11.638;2023-04-16T11:04:36;96056.69;;;13.80;56.98
77092;BME280;66032;48.252;11.638;2023-04-16T11:10:02;96053.63;;;13.21;58.31
77092;BME280;66032;48.252;11.638;2023-04-16T11:12:36;96061.81;;;12.96;58.77
77092;BME280;66032;48.252;11.638;2023-04-16T11:15:08;96067.66;;;12.59;59.10
77092;BME280;66032;48.252;11.638;2023-04-16T11:17:43;96070.81;;;12.70;59.39
77092;BME280;66032;48.252;11.638;2023-04-16T11:20:16;96065.81;;;12.67;59.67
77092;BME280;66032;48.252;11.638;2023-04-16T11:22:51;96070.81;;;12.54;60.46
77092;BME280;66032;48.252;11.638;2023-04-16T11:27:48;96068.66;;;12.58;60.68
77092;BME280;66032;48.252;11.638;2023-04-16T11:30:16;96071.66;;;12.46;61.01
77092;BME280;66032;48.252;11.638;2023-04-16T11:32:43;96075.47;;;12.68;61.04
77092;BME280;66032;48.252;11.638;2023-04-16T11:35:16;96066.13;;;12.88;60.01
77092;BME280;66032;48.252;11.638;2023-04-16T11:37:45;96061.13;;;13.02;60.11
77092;BME280;66032;48.252;11.638;2023-04-16T11:40:14;96074.78;;;12.74;60.64
77092;BME280;66032;48.252;11.638;2023-04-16T11:42:42;96085.59;;;12.65;60.70
77092;BME280;66032;48.252;11.638;2023-04-16T11:45:11;96077.97;;;12.37;60.70
77092;BME280;66032;48.252;11.638;2023-04-16T11:47:56;96081.75;;;12.19;61.41
77092;BME280;66032;48.252;11.638;2023-04-16T11:50:27;96083.59;;;12.34;62.04
77092;BME280;66032;48.252;11.638;2023-04-16T11:52:58;96073.63;;;12.36;61.51
77092;BME280;66032;48.252;11.638;2023-04-16T11:55:29;96075.31;;;12.37;61.50
77092;BME280;66032;48.252;11.638;2023-04-16T11:58:10;96082.91;;;12.16;62.23
77092;BME280;66032;48.252;11.638;2023-04-16T12:00:39;96080.91;;;12.10;62.54
77092;BME280;66032;48.252;11.638;2023-04-16T12:03:07;96085.91;;;12.13;61.82
77092;BME280;66032;48.252;11.638;2023-04-16T12:05:40;96089.88;;;12.09;62.63
77092;BME280;66032;48.252;11.638;2023-04-16T12:08:08;96085.09;;;12.12;61.99
77092;BME280;66032;48.252;11.638;2023-04-16T12:10:52;96079.28;;;12.25;62.25
77092;BME280;66032;48.252;11.638;2023-04-16T12:13:20;96085.75;;;12.47;61.27
77092;BME280;66032;48.252;11.638;2023-04-16T12:15:52;96082.09;;;12.72;60.39
77092;BME280;66032;48.252;11.638;2023-04-16T12:18:21;96073.59;;;12.93;59.68
77092;BME280;66032;48.252;11.638;2023-04-16T12:20:49;96071.56;;;13.11;58.44
77092;BME280;66032;48.252;11.638;2023-04-16T12:23:28;96079.56;;;13.11;58.35
77092;BME280;66032;48.252;11.638;2023-04-16T12:25:56;96087.69;;;13.26;58.38
77092;BME280;66032;48.252;11.638;2023-04-16T12:28:31;96079.72;;;13.65;57.53
77092;BME280;66032;48.252;11.638;2023-04-16T12:30:59;96078.31;;;13.85;57.39
77092;BME280;66032;48.252;11.638;2023-04-16T12:33:28;96085.56;;;13.99;55.98
77092;BME280;66032;48.252;11.638;2023-04-16T12:35:55;96085.34;;;13.78;57.31
77092;BME280;66032;48.252;11.638;2023-04-16T12:38:22;96086.44;;;13.61;57.21
77092;BME280;66032;48.252;11.638;2023-04-16T12:40:51;96084.38;;;13.24;58.04
77092;BME280;66032;48.252;11.638;2023-04-16T12:43:23;96082.72;;;13.07;58.72
77092;BME280;66032;48.252;11.638;2023-04-16T12:45:51;96080.47;;;13.51;58.08
77092;BME280;66032;48.252;11.638;2023-04-16T12:48:18;96079.06;;;13.71;58.21
77092;BME280;66032;48.252;11.638;2023-04-16T12:50:45;96084.13;;;14.20;57.60
77092;BME280;66032;48.252;11.638;2023-04-16T12:53:13;96086.66;;;14.13;56.43
77092;BME280;66032;48.252;11.638;2023-04-16T12:55:40;96091.25;;;13.96;57.09
77092;BME280;66032;48.252;11.638;2023-04-16T12:58:08;96084.34;;;14.33;56.24
77092;BME280;66032;48.252;11.638;2023-04-16T13:00:38;96081.53;;;14.57;55.96
77092;BME280;66032;48.252;11.638;2023-04-16T13:03:06;96089.69;;;14.64;55.77
77092;BME280;66032;48.252;11.638;2023-04-16T13:05:34;96085.56;;;14.53;56.07
77092;BME280;66032;48.252;11.638;2023-04-16T13:08:01;96081.84;;;14.62;54.63